Time;durP1;ratioP1;P1;durP2;ratioP2;P2;SDS_P1;SDS_P2;PMS_P1;PMS_P2;Temp;Humidity;BMP_temperature;BMP_pressure;BME280_temperature;BME280_humidity;BME280_pressure;Samples;Min_cycle;Max_cycle;Signal;HPM_P1;HPM_P2
2024/03/28 00:01:45;;;;;;;0.00;0.00;;;10.60;95.40;;;;;;4147055;28;20156;-55
2024/03/28 00:03:46;;;;;;;0.73;0.45;;;10.50;95.10;;;;;;4146625;28;20060;-57
2024/03/28 00:05:52;;;;;;;0.32;0.10;;;10.60;95.60;;;;;;4146157;28;20046;-56
2024/03/28 00:07:54;;;;;;;0.55;0.55;;;10.60;95.40;;;;;;4146139;28;20050;-56
2024/03/28 00:09:56;;;;;;;0.35;0.35;;;10.60;95.20;;;;;;4146036;28;20545;-56
2024/03/28 00:11:58;;;;;;;2.05;0.10;;;10.60;95.60;;;;;;4145915;28;20076;-56
2024/03/28 00:13:59;;;;;;;0.28;0.20;;;10.60;94.80;;;;;;4145979;28;20409;-56
2024/03/28 00:16:02;;;;;;;0.13;0.13;;;10.60;95.10;;;;;;4146238;28;20483;-54
2024/03/28 00:18:05;;;;;;;0.90;0.20;;;10.70;95.20;;;;;;4145854;28;20054;-55
2024/03/28 00:20:07;;;;;;;2.40;0.30;;;10.70;94.90;;;;;;4145929;28;20050;-53
2024/03/28 00:22:08;;;;;;;0.17;0.17;;;10.70;95.50;;;;;;4146058;28;20414;-55
2024/03/28 00:24:10;;;;;;;0.28;0.15;;;10.70;96.10;;;;;;4145568;28;20064;-54
2024/03/28 00:26:12;;;;;;;0.30;0.20;;;10.70;96.30;;;;;;4146592;28;20424;-52
2024/03/28 00:28:14;;;;;;;0.60;0.30;;;10.60;96.90;;;;;;4148931;28;20053;-52
2024/03/28 00:30:15;;;;;;;1.17;0.65;;;10.50;97.70;;;;;;4149051;28;20049;-53
2024/03/28 00:32:17;;;;;;;1.05;0.60;;;10.50;97.40;;;;;;4148896;28;20493;-55
2024/03/28 00:34:18;;;;;;;0.40;0.22;;;10.40;97.30;;;;;;4149041;28;20501;-55
2024/03/28 00:36:20;;;;;;;2.40;0.30;;;10.30;98.00;;;;;;4148909;28;20100;-52
2024/03/28 00:38:21;;;;;;;14.20;2.05;;;10.20;98.50;;;;;;4148541;28;20109;-54
2024/03/28 00:40:22;;;;;;;0.28;0.10;;;10.20;99.00;;;;;;4148899;28;20516;-53
2024/03/28 00:42:25;;;;;;;0.00;0.00;;;10.00;99.10;;;;;;4148819;28;20477;-54
2024/03/28 00:44:27;;;;;;;0.10;0.10;;;10.00;99.70;;;;;;4148848;28;20415;-53
2024/03/28 00:46:28;;;;;;;0.20;0.20;;;10.00;99.90;;;;;;4148698;28;20052;-53
2024/03/28 00:48:29;;;;;;;0.25;0.10;;;10.00;99.90;;;;;;4148902;28;20104;-54
2024/03/28 00:50:32;;;;;;;0.10;0.10;;;9.90;99.90;;;;;;4148954;28;20416;-53
2024/03/28 00:52:33;;;;;;;0.10;0.10;;;9.80;99.90;;;;;;4149015;28;20050;-54
2024/03/28 00:54:35;;;;;;;0.32;0.30;;;9.80;99.90;;;;;;4148182;28;20054;-52
2024/03/28 00:56:36;;;;;;;0.10;0.10;;;9.70;99.90;;;;;;4148458;28;20056;-55
2024/03/28 00:58:39;;;;;;;1.02;0.28;;;9.70;99.90;;;;;;4132230;28;20046;-55
2024/03/28 01:00:40;;;;;;;0.22;0.20;;;9.70;99.90;;;;;;4153063;28;20056;-55
2024/03/28 01:02:41;;;;;;;0.70;0.10;;;9.70;99.90;;;;;;4148588;28;20046;-54
2024/03/28 01:04:43;;;;;;;0.10;0.10;;;9.60;99.90;;;;;;4148306;28;20052;-55
2024/03/28 01:06:44;;;;;;;2.22;0.10;;;9.60;99.90;;;;;;4148490;28;20068;-55
2024/03/28 01:08:45;;;;;;;0.10;0.10;;;9.50;99.90;;;;;;4132130;28;20049;-54
2024/03/28 01:10:47;;;;;;;0.20;0.20;;;9.50;99.90;;;;;;4148406;28;20060;-54
2024/03/28 01:12:48;;;;;;;0.45;0.40;;;9.50;99.90;;;;;;4131930;28;20062;-54
2024/03/28 01:14:51;;;;;;;1.27;0.28;;;9.40;99.90;;;;;;4148236;28;20045;-55
2024/03/28 01:16:52;;;;;;;0.30;0.30;;;9.40;99.90;;;;;;4148529;28;20422;-53
2024/03/28 01:18:53;;;;;;;1.20;0.10;;;9.40;99.90;;;;;;4148234;28;20484;-55
2024/03/28 01:20:55;;;;;;;0.20;0.20;;;9.50;99.90;;;;;;4131835;28;20525;-55
2024/03/28 01:22:56;;;;;;;0.50;0.20;;;9.40;99.90;;;;;;4147975;28;20072;-54
2024/03/28 01:24:58;;;;;;;0.32;0.10;;;9.40;99.90;;;;;;4147894;28;20046;-54
2024/03/28 01:26:59;;;;;;;0.10;0.10;;;9.40;99.90;;;;;;4148391;28;20056;-53
2024/03/28 01:29:01;;;;;;;0.10;0.10;;;9.40;99.90;;;;;;4148231;28;20515;-52
2024/03/28 01:31:04;;;;;;;0.90;0.47;;;9.40;99.90;;;;;;4148308;28;20403;-53
2024/03/28 01:33:06;;;;;;;0.55;0.25;;;9.50;99.90;;;;;;4147910;28;20049;-53
2024/03/28 01:35:08;;;;;;;0.28;0.10;;;9.50;99.90;;;;;;4131574;28;20054;-54
2024/03/28 01:37:09;;;;;;;0.03;0.00;;;9.50;99.90;;;;;;4147272;28;20050;-53
2024/03/28 01:39:11;;;;;;;0.10;0.10;;;9.50;99.90;;;;;;4147192;28;20042;-55
2024/03/28 01:41:12;;;;;;;0.30;0.15;;;9.50;99.90;;;;;;4147695;28;20060;-54
2024/03/28 01:43:14;;;;;;;0.10;0.10;;;9.50;99.90;;;;;;4148064;28;20060;-53
2024/03/28 01:45:15;;;;;;;0.28;0.20;;;9.50;99.90;;;;;;4147650;28;20210;-55
2024/03/28 01:47:18;;;;;;;0.40;0.20;;;9.40;99.90;;;;;;4147866;28;20420;-52
2024/03/28 01:49:19;;;;;;;0.20;0.20;;;9.50;99.90;;;;;;4147881;28;20054;-55
2024/03/28 01:51:22;;;;;;;0.10;0.10;;;9.50;99.90;;;;;;4147333;28;20436;-54
2024/03/28 01:53:24;;;;;;;0.28;0.28;;;9.50;99.90;;;;;;4147861;28;20058;-54
2024/03/28 01:55:26;;;;;;;0.10;0.10;;;9.50;99.90;;;;;;4147582;28;20050;-53
2024/03/28 01:57:29;;;;;;;0.20;0.10;;;9.50;99.90;;;;;;4147353;28;20054;-54
2024/03/28 01:59:31;;;;;;;0.45;0.20;;;9.50;99.90;;;;;;4147492;28;20053;-55
2024/03/28 02:01:36;;;;;;;0.05;0.05;;;9.40;99.90;;;;;;4147365;28;20052;-54
2024/03/28 02:03:39;;;;;;;0.10;0.08;;;9.40;99.90;;;;;;4147659;28;20054;-54
2024/03/28 02:05:41;;;;;;;0.10;0.10;;;9.40;99.90;;;;;;4130980;28;20054;-55
2024/03/28 02:07:42;;;;;;;1.10;0.20;;;9.40;99.90;;;;;;4147590;28;20045;-55
2024/03/28 02:09:44;;;;;;;0.10;0.10;;;9.50;99.90;;;;;;4147244;28;20053;-60
2024/03/28 02:11:45;;;;;;;0.25;0.10;;;9.50;99.90;;;;;;4147456;28;20543;-54
2024/03/28 02:13:47;;;;;;;2.78;0.20;;;9.50;99.90;;;;;;4147518;28;20050;-55
2024/03/28 02:15:48;;;;;;;0.10;0.10;;;9.40;99.90;;;;;;4147469;28;20046;-55
2024/03/28 02:17:50;;;;;;;0.15;0.15;;;9.40;99.90;;;;;;4147004;28;20057;-54
2024/03/28 02:19:53;;;;;;;0.10;0.10;;;9.40;99.90;;;;;;4146872;28;20052;-56
2024/03/28 02:21:56;;;;;;;0.10;0.10;;;9.40;99.90;;;;;;4147064;28;20050;-54
2024/03/28 02:23:57;;;;;;;0.35;0.30;;;9.40;99.90;;;;;;4151868;28;20045;-55
2024/03/28 02:25:59;;;;;;;0.20;0.17;;;9.40;99.90;;;;;;4147498;28;20056;-53
2024/03/28 02:28:00;;;;;;;0.68;0.68;;;9.40;99.90;;;;;;4147414;28;20068;-54
2024/03/28 02:30:07;;;;;;;0.20;0.10;;;9.40;99.90;;;;;;4151880;28;20048;-54
2024/03/28 02:32:08;;;;;;;1.25;0.15;;;9.40;99.90;;;;;;4147149;28;20490;-55
2024/03/28 02:34:09;;;;;;;0.10;0.10;;;9.40;99.90;;;;;;4146706;28;20054;-54
2024/03/28 02:36:11;;;;;;;0.10;0.10;;;9.40;99.90;;;;;;4146991;28;20049;-54
2024/03/28 02:38:14;;;;;;;0.30;0.10;;;9.40;99.90;;;;;;4146863;28;20060;-55
2024/03/28 02:40:16;;;;;;;0.43;0.20;;;9.40;99.90;;;;;;4146806;28;20101;-55
2024/03/28 02:42:17;;;;;;;0.10;0.10;;;9.40;99.90;;;;;;4147111;28;20049;-55
2024/03/28 02:44:19;;;;;;;0.10;0.10;;;9.50;99.90;;;;;;4146910;28;20509;-55
2024/03/28 02:46:20;;;;;;;0.10;0.10;;;9.50;99.90;;;;;;4146882;28;20049;-55
2024/03/28 02:48:22;;;;;;;0.57;0.13;;;9.50;99.90;;;;;;4147126;28;20046;-54
2024/03/28 02:50:24;;;;;;;0.30;0.30;;;9.60;99.90;;;;;;4146045;28;20058;-54
2024/03/28 02:52:25;;;;;;;0.10;0.08;;;9.50;99.90;;;;;;4146762;28;20521;-55
2024/03/28 02:54:28;;;;;;;0.28;0.20;;;9.50;99.90;;;;;;4147031;28;20058;-55
2024/03/28 02:56:29;;;;;;;0.25;0.10;;;9.60;99.90;;;;;;4146863;28;20049;-54
2024/03/28 02:58:31;;;;;;;0.20;0.10;;;9.60;99.90;;;;;;4146773;28;20054;-56
2024/03/28 03:00:32;;;;;;;0.10;0.10;;;9.50;99.90;;;;;;4130260;28;20181;-55
2024/03/28 03:02:34;;;;;;;0.00;0.00;;;9.50;99.90;;;;;;4146809;28;20049;-55
2024/03/28 03:04:35;;;;;;;1.55;0.20;;;9.50;99.90;;;;;;4146323;28;20045;-55
2024/03/28 03:06:36;;;;;;;0.60;0.10;;;9.40;99.90;;;;;;4146560;28;20054;-56
2024/03/28 03:08:37;;;;;;;0.20;0.20;;;9.40;99.90;;;;;;4130318;28;20046;-55
2024/03/28 03:10:40;;;;;;;0.45;0.10;;;9.40;99.90;;;;;;4146555;28;20410;-55
2024/03/28 03:12:42;;;;;;;0.00;0.00;;;9.30;99.90;;;;;;4162658;28;20053;-55
2024/03/28 03:14:43;;;;;;;0.15;0.05;;;9.40;99.90;;;;;;4146324;28;20043;-54
2024/03/28 03:16:45;;;;;;;0.88;0.10;;;9.30;99.90;;;;;;4146665;28;20428;-55
2024/03/28 03:18:49;;;;;;;0.30;0.17;;;9.40;99.90;;;;;;4145874;28;20069;-55
2024/03/28 03:21:00;;;;;;;0.00;0.00;;;9.40;99.90;;;;;;4146274;28;20053;-55
2024/03/28 03:23:04;;;;;;;0.10;0.10;;;9.30;99.90;;;;;;4146612;28;20563;-55
2024/03/28 03:25:24;;;;;;;1.95;0.30;;;9.30;99.90;;;;;;4146680;28;20465;-56
2024/03/28 03:27:32;;;;;;;0.10;0.10;;;9.30;99.90;;;;;;4146713;28;20100;-55
2024/03/28 03:36:34;;;;;;;0.00;0.00;;;9.20;99.90;;;;;;4146187;28;20056;-55
2024/03/28 03:38:35;;;;;;;5.53;0.55;;;9.10;99.90;;;;;;4146284;28;20050;-54
2024/03/28 03:40:37;;;;;;;0.00;0.00;;;9.00;99.90;;;;;;4146245;28;20064;-55
2024/03/28 03:42:39;;;;;;;0.10;0.10;;;9.00;99.90;;;;;;4146254;28;20056;-55
2024/03/28 03:44:41;;;;;;;0.20;0.17;;;9.00;99.90;;;;;;4146307;28;20064;-55
2024/03/28 03:46:42;;;;;;;0.13;0.13;;;9.00;99.90;;;;;;4145946;28;20482;-55
2024/03/28 03:48:44;;;;;;;0.15;0.10;;;9.10;99.90;;;;;;4146083;28;20042;-54
2024/03/28 03:50:45;;;;;;;0.25;0.25;;;9.00;99.90;;;;;;4146257;28;20044;-55
2024/03/28 03:52:46;;;;;;;0.25;0.08;;;9.10;99.90;;;;;;4145944;28;20053;-55
2024/03/28 03:54:47;;;;;;;0.75;0.00;;;9.10;99.90;;;;;;4146031;28;20052;-55
2024/03/28 03:56:49;;;;;;;0.00;0.00;;;9.10;99.90;;;;;;4146148;28;20123;-55
2024/03/28 03:58:52;;;;;;;0.10;0.10;;;9.00;99.90;;;;;;4146202;28;20160;-56
2024/03/28 04:00:53;;;;;;;0.00;0.00;;;9.10;99.90;;;;;;4146275;28;20104;-53
2024/03/28 04:02:54;;;;;;;0.30;0.00;;;9.10;99.90;;;;;;4149076;28;20068;-53
2024/03/28 04:04:56;;;;;;;0.10;0.10;;;9.10;99.90;;;;;;4149539;28;20049;-55
2024/03/28 04:06:57;;;;;;;0.05;0.05;;;9.10;99.90;;;;;;4149546;28;20046;-55
2024/03/28 04:08:58;;;;;;;0.20;0.08;;;9.10;99.90;;;;;;4149333;28;20060;-55
2024/03/28 04:11:00;;;;;;;0.10;0.10;;;9.10;99.90;;;;;;4149511;28;20096;-53
2024/03/28 04:13:01;;;;;;;4.03;1.45;;;9.10;99.90;;;;;;4149423;28;20042;-53
2024/03/28 04:15:05;;;;;;;0.00;0.00;;;9.10;99.90;;;;;;4149198;28;20050;-52
2024/03/28 04:17:06;;;;;;;0.00;0.00;;;9.10;99.90;;;;;;4148809;28;20054;-55
2024/03/28 04:19:08;;;;;;;0.00;0.00;;;9.10;99.90;;;;;;4148961;28;20056;-55
2024/03/28 04:21:09;;;;;;;0.52;0.22;;;9.00;99.90;;;;;;4149034;28;20042;-53
2024/03/28 04:23:11;;;;;;;0.35;0.10;;;9.00;99.90;;;;;;4132701;28;20061;-53
2024/03/28 04:25:12;;;;;;;0.43;0.32;;;8.90;99.90;;;;;;4149154;28;20824;-54
2024/03/28 04:27:14;;;;;;;0.00;0.00;;;8.80;99.90;;;;;;4149086;28;20046;-54
2024/03/28 04:29:16;;;;;;;0.03;0.03;;;8.90;99.90;;;;;;4150941;28;20041;-53
2024/03/28 04:31:19;;;;;;;0.20;0.00;;;8.90;99.90;;;;;;4148701;28;20543;-53
2024/03/28 04:33:20;;;;;;;0.10;0.10;;;8.90;99.90;;;;;;4148815;28;20050;-53
2024/03/28 04:35:21;;;;;;;0.47;0.03;;;8.80;99.90;;;;;;4148791;28;20540;-53
2024/03/28 04:37:23;;;;;;;0.00;0.00;;;8.80;99.90;;;;;;4148782;28;20042;-53
2024/03/28 04:39:24;;;;;;;0.10;0.10;;;8.70;99.90;;;;;;4148927;28;20049;-52
2024/03/28 04:41:26;;;;;;;0.00;0.00;;;8.70;99.90;;;;;;4148885;28;20056;-53
2024/03/28 04:43:27;;;;;;;0.10;0.00;;;8.70;99.90;;;;;;4148674;28;20060;-53
2024/03/28 04:45:28;;;;;;;0.35;0.10;;;8.70;99.90;;;;;;4148751;28;20052;-56
2024/03/28 04:47:31;;;;;;;0.10;0.10;;;8.60;99.90;;;;;;4148507;28;20048;-53
2024/03/28 04:49:32;;;;;;;0.10;0.10;;;8.50;99.90;;;;;;4148818;28;20495;-53
2024/03/28 04:51:34;;;;;;;0.20;0.10;;;8.50;99.90;;;;;;4148745;28;20506;-53
2024/03/28 04:53:35;;;;;;;0.10;0.00;;;8.50;99.90;;;;;;4132547;28;20065;-53
2024/03/28 04:55:36;;;;;;;0.43;0.10;;;8.40;99.90;;;;;;4148537;28;20587;-53
2024/03/28 04:57:38;;;;;;;0.17;0.13;;;8.40;99.90;;;;;;4132135;28;20053;-55
2024/03/28 04:59:39;;;;;;;0.20;0.05;;;8.40;99.30;;;;;;4148247;28;20046;-54
2024/03/28 05:01:41;;;;;;;0.00;0.00;;;8.30;99.30;;;;;;4132089;28;20054;-52
2024/03/28 05:03:43;;;;;;;0.30;0.20;;;8.30;99.50;;;;;;4148415;28;20050;-53
2024/03/28 05:05:47;;;;;;;0.10;0.10;;;8.40;99.50;;;;;;4148629;28;20050;-53
2024/03/28 05:07:48;;;;;;;0.38;0.25;;;8.20;99.10;;;;;;4148420;28;20473;-54
2024/03/28 05:09:50;;;;;;;2.17;1.08;;;8.20;99.00;;;;;;4148384;28;20046;-53
2024/03/28 05:11:51;;;;;;;0.08;0.00;;;8.20;99.00;;;;;;4148144;28;20046;-55
2024/03/28 05:13:52;;;;;;;0.13;0.10;;;8.20;99.30;;;;;;4148104;28;20054;-55
2024/03/28 05:15:54;;;;;;;0.65;0.17;;;8.10;98.00;;;;;;4148215;28;20050;-55
2024/03/28 05:17:56;;;;;;;0.70;0.47;;;8.10;98.60;;;;;;4148248;28;20054;-55
2024/03/28 05:19:59;;;;;;;0.50;0.30;;;8.10;97.90;;;;;;4148213;28;20046;-55
2024/03/28 05:22:01;;;;;;;0.20;0.10;;;8.10;98.40;;;;;;4148181;28;20049;-55
2024/03/28 05:24:04;;;;;;;0.00;0.00;;;8.10;99.40;;;;;;4148139;28;20406;-59
2024/03/28 05:26:05;;;;;;;0.08;0.08;;;8.20;98.60;;;;;;4148029;28;20417;-55
2024/03/28 05:28:06;;;;;;;0.30;0.15;;;8.10;98.80;;;;;;4131549;28;20600;-55
2024/03/28 05:30:08;;;;;;;2.60;1.27;;;8.10;98.80;;;;;;4148014;28;20046;-56
2024/03/28 05:32:10;;;;;;;2.55;0.05;;;8.10;98.30;;;;;;4148247;28;20057;-55
2024/03/28 05:34:11;;;;;;;0.35;0.20;;;8.20;98.20;;;;;;4147830;28;20049;-55
2024/03/28 05:36:14;;;;;;;0.10;0.10;;;8.20;97.80;;;;;;4148140;28;20067;-54
2024/03/28 05:38:15;;;;;;;0.22;0.10;;;8.20;97.90;;;;;;4148146;28;20056;-55
2024/03/28 05:40:17;;;;;;;0.10;0.10;;;8.20;98.10;;;;;;4148307;28;20053;-55
2024/03/28 05:42:18;;;;;;;0.82;0.28;;;8.20;98.20;;;;;;4147861;28;20156;-56
2024/03/28 05:44:20;;;;;;;0.10;0.10;;;8.20;98.00;;;;;;4147667;28;20055;-55
2024/03/28 05:46:21;;;;;;;0.40;0.20;;;8.10;98.60;;;;;;4147756;28;20179;-55
2024/03/28 05:48:23;;;;;;;0.00;0.00;;;8.20;98.70;;;;;;4147834;28;20060;-54
2024/03/28 05:50:24;;;;;;;1.10;0.20;;;8.30;99.20;;;;;;4147743;28;20527;-54
2024/03/28 05:52:27;;;;;;;0.10;0.10;;;8.40;98.60;;;;;;4148105;28;20076;-53
2024/03/28 05:54:28;;;;;;;0.00;0.00;;;8.40;98.50;;;;;;4148036;28;20053;-55
2024/03/28 05:56:30;;;;;;;0.00;0.00;;;8.40;98.30;;;;;;4147777;28;20162;-55
2024/03/28 05:58:31;;;;;;;0.10;0.10;;;8.40;98.70;;;;;;4147439;28;20108;-53
2024/03/28 06:00:32;;;;;;;0.10;0.10;;;8.40;98.30;;;;;;4147565;28;20513;-53
2024/03/28 06:02:34;;;;;;;0.43;0.20;;;8.20;98.50;;;;;;4147610;28;20042;-53
2024/03/28 06:04:35;;;;;;;0.50;0.25;;;8.20;98.90;;;;;;4147659;28;20072;-53
2024/03/28 06:06:36;;;;;;;0.08;0.08;;;8.30;99.10;;;;;;4147658;28;20056;-55
2024/03/28 06:08:40;;;;;;;0.47;0.10;;;8.30;99.00;;;;;;4147658;28;20068;-56
2024/03/28 06:10:44;;;;;;;0.20;0.20;;;8.50;98.90;;;;;;4131091;28;20056;-55
2024/03/28 06:12:45;;;;;;;0.77;0.10;;;8.40;99.10;;;;;;4147264;28;20045;-55
2024/03/28 06:14:46;;;;;;;1.05;0.60;;;8.50;99.00;;;;;;4147296;28;20046;-54
2024/03/28 06:16:48;;;;;;;0.28;0.10;;;8.50;99.30;;;;;;4131067;28;20477;-55
2024/03/28 06:18:49;;;;;;;0.30;0.30;;;8.60;99.70;;;;;;4147217;28;20080;-55
2024/03/28 06:20:57;;;;;;;0.13;0.13;;;8.50;99.50;;;;;;4147213;28;20038;-55
2024/03/28 06:22:58;;;;;;;0.00;0.00;;;8.50;99.90;;;;;;4147313;28;20062;-54
2024/03/28 06:25:01;;;;;;;0.10;0.10;;;8.50;99.90;;;;;;4146679;28;20050;-55
2024/03/28 06:27:05;;;;;;;0.60;0.20;;;8.40;99.80;;;;;;4146875;28;20052;-55
2024/03/28 06:29:06;;;;;;;1.70;0.20;;;8.40;99.90;;;;;;4147158;28;20056;-54
2024/03/28 06:31:07;;;;;;;0.10;0.10;;;8.40;99.90;;;;;;4147109;28;20049;-56
2024/03/28 06:33:09;;;;;;;0.00;0.00;;;8.40;99.90;;;;;;4147283;28;20056;-55
2024/03/28 06:35:10;;;;;;;0.80;0.65;;;8.30;99.90;;;;;;4146851;28;20050;-54
2024/03/28 06:37:12;;;;;;;0.05;0.05;;;8.40;99.90;;;;;;4147517;28;20072;-55
2024/03/28 06:39:15;;;;;;;0.03;0.03;;;8.40;99.90;;;;;;4147171;28;20053;-59
2024/03/28 06:41:18;;;;;;;0.10;0.10;;;8.40;99.90;;;;;;4146461;28;20046;-54
2024/03/28 06:43:19;;;;;;;1.38;0.63;;;8.40;99.90;;;;;;4147217;28;20056;-54
2024/03/28 06:45:22;;;;;;;1.30;0.10;;;8.40;99.90;;;;;;4147084;28;20072;-54
2024/03/28 06:47:23;;;;;;;0.05;0.00;;;8.50;99.90;;;;;;4147394;28;20050;-55
2024/03/28 06:49:25;;;;;;;0.40;0.10;;;8.40;99.90;;;;;;4147255;28;20052;-55
2024/03/28 06:51:26;;;;;;;0.30;0.08;;;8.50;99.90;;;;;;4146844;28;20045;-55
2024/03/28 06:53:28;;;;;;;0.77;0.22;;;8.60;99.90;;;;;;4146877;28;20497;-55
2024/03/28 06:55:29;;;;;;;0.08;0.00;;;8.60;99.90;;;;;;4146598;28;20046;-55
2024/03/28 06:57:32;;;;;;;2.63;1.17;;;8.60;99.90;;;;;;4146543;28;20046;-55
2024/03/28 06:59:33;;;;;;;0.32;0.03;;;8.70;99.90;;;;;;4146683;28;20096;-55
2024/03/28 07:01:34;;;;;;;0.10;0.10;;;8.60;99.30;;;;;;4146932;28;20060;-54
2024/03/28 07:03:36;;;;;;;3.20;0.80;;;8.60;99.80;;;;;;4146766;28;20408;-56
2024/03/28 07:05:37;;;;;;;0.13;0.10;;;8.60;99.20;;;;;;4146674;28;20135;-55
2024/03/28 07:07:39;;;;;;;0.00;0.00;;;8.50;99.40;;;;;;4151310;28;20339;-55
2024/03/28 07:09:40;;;;;;;0.10;0.10;;;8.50;99.50;;;;;;4146314;28;20049;-55
2024/03/28 07:11:45;;;;;;;0.15;0.10;;;8.50;99.70;;;;;;4146775;28;20045;-55
2024/03/28 07:13:48;;;;;;;;;;;8.50;99.40;;;;;;4146823;28;20064;-54
2024/03/28 07:15:49;;;;;;;0.10;0.10;;;8.60;99.20;;;;;;4146669;28;19947;-55
2024/03/28 07:17:51;;;;;;;0.43;0.00;;;8.70;99.00;;;;;;4146210;28;20050;-56
2024/03/28 07:19:52;;;;;;;0.15;0.00;;;8.70;98.70;;;;;;4146564;28;20046;-55
2024/03/28 07:21:53;;;;;;;0.03;0.03;;;8.70;98.70;;;;;;4146260;28;20042;-54
2024/03/28 07:23:55;;;;;;;0.00;0.00;;;8.70;98.40;;;;;;4146422;28;20057;-54
2024/03/28 07:25:56;;;;;;;0.35;0.35;;;8.70;98.30;;;;;;4146322;28;20058;-54
2024/03/28 07:27:57;;;;;;;0.00;0.00;;;8.80;98.20;;;;;;4130067;28;20549;-54
2024/03/28 07:30:00;;;;;;;0.10;0.10;;;8.70;98.30;;;;;;4146420;28;20050;-54
2024/03/28 07:32:02;;;;;;;2.53;0.10;;;8.70;98.10;;;;;;4130129;28;20093;-55
2024/03/28 07:34:04;;;;;;;0.65;0.10;;;8.70;98.70;;;;;;4146502;28;20080;-55
2024/03/28 07:36:06;;;;;;;0.00;0.00;;;8.80;98.50;;;;;;4146440;28;20049;-55
2024/03/28 07:38:07;;;;;;;0.95;0.57;;;8.90;98.30;;;;;;4146529;28;20045;-55
2024/03/28 07:40:09;;;;;;;0.00;0.00;;;9.00;98.40;;;;;;4146046;28;20050;-54
2024/03/28 07:42:11;;;;;;;5.68;0.30;;;9.00;98.10;;;;;;4146345;28;20057;-55
2024/03/28 07:44:12;;;;;;;0.52;0.17;;;9.20;97.80;;;;;;4146480;28;20050;-54
2024/03/28 07:46:15;;;;;;;0.77;0.10;;;9.20;97.40;;;;;;4146412;28;20049;-54
2024/03/28 07:48:16;;;;;;;0.98;0.10;;;9.30;97.70;;;;;;4146474;28;20432;-53
2024/03/28 07:50:18;;;;;;;0.80;0.20;;;9.60;97.00;;;;;;4146180;28;20050;-53
2024/03/28 07:52:19;;;;;;;0.00;0.00;;;10.20;96.60;;;;;;4146244;28;20155;-55
2024/03/28 07:54:20;;;;;;;0.10;0.10;;;10.40;95.80;;;;;;4146065;28;20045;-54
2024/03/28 07:56:22;;;;;;;1.90;0.70;;;10.60;95.80;;;;;;4146044;28;20056;-55
2024/03/28 07:58:25;;;;;;;0.10;0.10;;;10.70;96.10;;;;;;4146110;28;20050;-55
2024/03/28 08:00:27;;;;;;;0.17;0.17;;;11.10;94.80;;;;;;4145964;28;20131;-53
2024/03/28 08:02:29;;;;;;;0.40;0.10;;;11.20;94.20;;;;;;4146061;28;20058;-55
2024/03/28 08:04:31;;;;;;;4.65;1.42;;;11.30;94.60;;;;;;4146160;28;20054;-55
2024/03/28 08:06:33;;;;;;;0.98;0.20;;;10.90;94.40;;;;;;4146691;28;20436;-53
2024/03/28 08:08:35;;;;;;;0.90;0.20;;;11.00;94.80;;;;;;4145950;28;20054;-58
2024/03/28 08:10:36;;;;;;;0.10;0.00;;;10.90;94.70;;;;;;4146573;28;20053;-52
2024/03/28 08:12:39;;;;;;;0.40;0.38;;;11.10;94.60;;;;;;4146073;28;20058;-53
2024/03/28 08:14:40;;;;;;;0.10;0.05;;;11.10;94.40;;;;;;4146404;28;20042;-54
2024/03/28 08:16:41;;;;;;;0.05;0.05;;;11.50;94.40;;;;;;4146080;28;20052;-54
2024/03/28 08:18:44;;;;;;;0.00;0.00;;;11.80;94.00;;;;;;4146123;28;20050;-54
2024/03/28 08:20:46;;;;;;;0.60;0.20;;;11.80;93.10;;;;;;4146453;28;20038;-55
2024/03/28 08:22:48;;;;;;;0.00;0.00;;;12.10;93.50;;;;;;4129579;28;20054;-52
2024/03/28 08:24:50;;;;;;;0.20;0.10;;;12.20;92.20;;;;;;4146430;28;20121;-55
2024/03/28 08:26:51;;;;;;;0.57;0.20;;;12.10;92.70;;;;;;4146203;28;20054;-55
2024/03/28 08:28:54;;;;;;;1.27;0.25;;;12.00;93.00;;;;;;4146598;28;20065;-55
2024/03/28 08:30:55;;;;;;;0.20;0.17;;;11.90;93.00;;;;;;4146189;28;20054;-55
2024/03/28 08:32:58;;;;;;;0.60;0.13;;;11.80;93.20;;;;;;4145757;28;20053;-63
2024/03/28 08:35:02;;;;;;;2.08;0.20;;;11.60;93.90;;;;;;4145848;28;20513;-55
2024/03/28 08:37:03;;;;;;;0.10;0.03;;;11.40;93.50;;;;;;4145598;28;20046;-55
2024/03/28 08:39:05;;;;;;;0.08;0.08;;;11.50;93.80;;;;;;4153637;28;20045;-56
2024/03/28 08:41:07;;;;;;;0.75;0.20;;;11.50;94.40;;;;;;4162115;28;20045;-55
2024/03/28 08:43:08;;;;;;;0.30;0.10;;;11.40;93.60;;;;;;4161817;28;20050;-55
2024/03/28 08:45:13;;;;;;;2.08;1.05;;;11.10;93.90;;;;;;4162365;28;20045;-55
2024/03/28 08:47:15;;;;;;;0.20;0.20;;;11.00;93.90;;;;;;4162887;28;20063;-56
2024/03/28 08:49:16;;;;;;;0.25;0.10;;;10.80;93.70;;;;;;4165144;28;20099;-56
2024/03/28 08:51:22;;;;;;;0.20;0.10;;;10.70;94.20;;;;;;4164782;28;20062;-55
2024/03/28 08:53:25;;;;;;;0.52;0.20;;;10.80;94.10;;;;;;4165291;28;20390;-56
2024/03/28 08:55:26;;;;;;;0.32;0.20;;;10.80;94.00;;;;;;4148452;28;20053;-53
2024/03/28 08:57:28;;;;;;;0.25;0.10;;;11.00;94.00;;;;;;4165036;28;20045;-54
2024/03/28 08:59:29;;;;;;;6.97;0.55;;;10.90;93.70;;;;;;4165469;28;20052;-54
2024/03/28 09:01:31;;;;;;;0.47;0.45;;;11.00;94.30;;;;;;4165430;28;20045;-54
2024/03/28 09:03:32;;;;;;;0.85;0.20;;;11.00;94.20;;;;;;4164956;28;20408;-54
2024/03/28 09:05:34;;;;;;;0.10;0.10;;;11.00;94.80;;;;;;4164694;28;20049;-53
2024/03/28 09:07:38;;;;;;;0.22;0.10;;;11.00;93.90;;;;;;4164749;28;20053;-53
2024/03/28 09:09:39;;;;;;;0.00;0.00;;;11.00;93.40;;;;;;4165635;28;20056;-53
2024/03/28 09:11:41;;;;;;;0.47;0.00;;;10.90;93.60;;;;;;4165939;28;20500;-53
2024/03/28 09:13:42;;;;;;;0.00;0.00;;;10.80;94.30;;;;;;4165674;28;20051;-56
2024/03/28 09:15:43;;;;;;;0.70;0.15;;;10.90;94.00;;;;;;4165608;28;20579;-54
2024/03/28 09:17:45;;;;;;;0.00;0.00;;;10.90;94.40;;;;;;4165111;28;20398;-53
2024/03/28 09:19:50;;;;;;;0.15;0.15;;;11.10;94.70;;;;;;4164747;28;20050;-53
2024/03/28 09:21:51;;;;;;;0.17;0.15;;;11.00;93.40;;;;;;4157880;28;20051;-54
2024/03/28 09:23:54;;;;;;;0.08;0.08;;;11.00;94.30;;;;;;4132252;28;20502;-54
2024/03/28 09:25:55;;;;;;;0.40;0.10;;;11.10;94.00;;;;;;4132390;28;20046;-54
2024/03/28 09:27:57;;;;;;;0.55;0.10;;;11.20;93.80;;;;;;4132547;28;20072;-54
2024/03/28 09:30:00;;;;;;;0.08;0.08;;;11.00;93.70;;;;;;4116643;28;20085;-54
2024/03/28 09:32:02;;;;;;;0.52;0.45;;;11.10;94.40;;;;;;4132792;28;20462;-52
2024/03/28 09:34:04;;;;;;;0.20;0.20;;;11.20;93.30;;;;;;4132407;28;20065;-53
2024/03/28 09:36:05;;;;;;;0.10;0.10;;;11.20;93.70;;;;;;4116056;28;20053;-53
2024/03/28 09:38:07;;;;;;;0.25;0.17;;;11.20;94.00;;;;;;4132159;28;20060;-54
2024/03/28 09:40:13;;;;;;;0.05;0.05;;;11.30;93.40;;;;;;4132162;28;20076;-54
2024/03/28 09:42:19;;;;;;;2.38;0.80;;;11.40;92.90;;;;;;4132166;28;20050;-54
2024/03/28 09:44:21;;;;;;;0.17;0.10;;;11.60;93.70;;;;;;4133486;28;20042;-54
2024/03/28 09:46:22;;;;;;;0.10;0.10;;;11.80;93.50;;;;;;4146751;28;20408;-55
2024/03/28 09:48:24;;;;;;;0.35;0.10;;;11.80;93.00;;;;;;4146124;28;20505;-55
2024/03/28 09:50:27;;;;;;;0.20;0.15;;;12.00;92.80;;;;;;4142489;28;20060;-55
2024/03/28 09:52:29;;;;;;;0.10;0.10;;;12.10;92.80;;;;;;4147180;28;20072;-54
2024/03/28 09:54:33;;;;;;;0.03;0.03;;;12.20;92.30;;;;;;4147030;28;20045;-55
2024/03/28 09:56:36;;;;;;;2.80;0.20;;;12.00;91.90;;;;;;4155735;28;20075;-54
2024/03/28 09:58:38;;;;;;;0.10;0.10;;;12.00;92.60;;;;;;4138078;28;20051;-54
2024/03/28 10:00:40;;;;;;;4.65;0.20;;;11.80;92.20;;;;;;4131646;28;20046;-54
2024/03/28 10:02:47;;;;;;;0.00;0.00;;;11.60;92.70;;;;;;4131469;28;20055;-54
2024/03/28 10:04:53;;;;;;;0.30;0.08;;;11.70;92.10;;;;;;4131310;28;20043;-53
2024/03/28 10:06:55;;;;;;;1.15;0.10;;;11.80;92.60;;;;;;4140576;28;20045;-54
2024/03/28 10:08:56;;;;;;;0.10;0.10;;;11.80;92.40;;;;;;4131592;28;20152;-54
2024/03/28 10:10:59;;;;;;;0.10;0.00;;;11.90;92.20;;;;;;4135544;28;20052;-55
2024/03/28 10:13:06;;;;;;;0.22;0.17;;;11.90;92.60;;;;;;4140670;28;20052;-55
2024/03/28 10:15:14;;;;;;;1.48;0.20;;;12.00;91.90;;;;;;4139047;28;20054;-55
2024/03/28 10:17:17;;;;;;;2.00;0.38;;;12.00;91.90;;;;;;4130943;28;20047;-54
2024/03/28 10:19:18;;;;;;;0.25;0.10;;;12.10;92.10;;;;;;4137134;28;20076;-55
2024/03/28 10:21:20;;;;;;;0.55;0.10;;;12.00;91.60;;;;;;4147177;28;20046;-53
2024/03/28 10:23:22;;;;;;;0.65;0.30;;;12.00;92.00;;;;;;4143575;28;20046;-54
2024/03/28 10:25:25;;;;;;;0.43;0.43;;;12.10;91.80;;;;;;4130631;28;20054;-55
2024/03/28 10:27:27;;;;;;;0.30;0.10;;;12.20;92.90;;;;;;4133799;28;20052;-54
2024/03/28 10:29:31;;;;;;;2.67;0.88;;;12.30;92.00;;;;;;4142063;28;20050;-54
2024/03/28 10:31:32;;;;;;;0.45;0.28;;;12.40;92.30;;;;;;4131170;28;20473;-54
2024/03/28 10:33:34;;;;;;;0.20;0.10;;;12.50;91.90;;;;;;4130947;28;20054;-54
2024/03/28 10:35:35;;;;;;;0.10;0.10;;;12.70;92.00;;;;;;4131093;28;20064;-54
2024/03/28 10:37:37;;;;;;;0.40;0.15;;;12.60;91.30;;;;;;4132270;28;20097;-51
2024/03/28 10:39:38;;;;;;;0.98;0.20;;;12.70;92.10;;;;;;4132598;28;20042;-54
2024/03/28 10:41:41;;;;;;;4.47;1.45;;;12.60;92.00;;;;;;4131237;28;20050;-54
2024/03/28 10:43:43;;;;;;;0.10;0.10;;;12.80;92.40;;;;;;4131079;28;20050;-54
2024/03/28 10:45:47;;;;;;;1.13;0.30;;;12.80;90.90;;;;;;4143953;28;20053;-54
2024/03/28 10:47:52;;;;;;;2.25;1.13;;;12.80;91.30;;;;;;4144861;28;20465;-54